sensor_id;sensor_type;location;lat;lon;timestamp;pressure;altitude;pressure_sealevel;temperature;humidity
36258;BME280;22294;52.044;4.582;2023-02-15T00:01:40;78800.59;;;-144.37;100.00
36258;BME280;22294;52.044;4.582;2023-02-15T00:04:06;78800.59;;;-144.37;100.00
36258;BME280;22294;52.044;4.582;2023-02-15T00:06:32;78812.88;;;-144.37;100.00
36258;BME280;22294;52.044;4.582;2023-02-15T00:08:58;78825.16;;;-144.37;100.00
36258;BME280;22294;52.044;4.582;2023-02-15T00:11:24;78819.00;;;-144.37;100.00
36258;BME280;22294;52.044;4.582;2023-02-15T00:14:10;78841.50;;;-144.37;100.00
36258;BME280;22294;52.044;4.582;2023-02-15T00:16:36;78845.59;;;-144.37;100.00
36258;BME280;22294;52.044;4.582;2023-02-15T00:19:01;78864.03;;;-144.37;100.00
36258;BME280;22294;52.044;4.582;2023-02-15T00:21:28;78888.59;;;-144.37;100.00
36258;BME280;22294;52.044;4.582;2023-02-15T00:23:55;78882.44;;;-144.37;100.00
36258;BME280;22294;52.044;4.582;2023-02-15T00:26:21;78890.63;;;-144.37;100.00
36258;BME280;22294;52.044;4.582;2023-02-15T00:28:46;78888.59;;;-144.37;100.00
36258;BME280;22294;52.044;4.582;2023-02-15T00:31:12;78882.44;;;-144.37;100.00
36258;BME280;22294;52.044;4.582;2023-02-15T00:33:38;78870.16;;;-144.37;100.00
36258;BME280;22294;52.044;4.582;2023-02-15T00:36:05;78859.94;;;-144.37;100.00
36258;BME280;22294;52.044;4.582;2023-02-15T00:38:31;78851.75;;;-144.37;100.00
36258;BME280;22294;52.044;4.582;2023-02-15T00:40:58;78843.56;;;-144.37;100.00
36258;BME280;22294;52.044;4.582;2023-02-15T00:43:24;78845.59;;;-144.37;100.00
36258;BME280;22294;52.044;4.582;2023-02-15T00:45:50;78833.31;;;-144.37;100.00
36258;BME280;22294;52.044;4.582;2023-02-15T00:48:15;78823.09;;;-144.37;100.00
36258;BME280;22294;52.044;4.582;2023-02-15T00:50:41;78837.41;;;-144.37;100.00
36258;BME280;22294;52.044;4.582;2023-02-15T00:53:06;78825.16;;;-144.37;100.00
36258;BME280;22294;52.044;4.582;2023-02-15T00:55:32;78827.19;;;-144.37;100.00
36258;BME280;22294;52.044;4.582;2023-02-15T00:57:57;78847.66;;;-144.37;100.00
36258;BME280;22294;52.044;4.582;2023-02-15T01:00:22;78845.59;;;-144.37;100.00
36258;BME280;22294;52.044;4.582;2023-02-15T01:02:47;78827.19;;;-144.37;100.00
36258;BME280;22294;52.044;4.582;2023-02-15T01:05:15;78808.78;;;-144.37;100.00
36258;BME280;22294;52.044;4.582;2023-02-15T01:07:41;78800.59;;;-144.37;100.00
36258;BME280;22294;52.044;4.582;2023-02-15T01:10:07;78808.78;;;-144.37;100.00
36258;BME280;22294;52.044;4.582;2023-02-15T01:12:33;78810.81;;;-144.37;100.00
36258;BME280;22294;52.044;4.582;2023-02-15T01:14:58;78823.09;;;-144.37;100.00
36258;BME280;22294;52.044;4.582;2023-02-15T01:17:23;78819.00;;;-144.37;100.00
36258;BME280;22294;52.044;4.582;2023-02-15T01:19:49;78831.28;;;-144.37;100.00
36258;BME280;22294;52.044;4.582;2023-02-15T01:22:14;78829.22;;;-144.37;100.00
36258;BME280;22294;52.044;4.582;2023-02-15T01:24:39;78829.22;;;-144.37;100.00
36258;BME280;22294;52.044;4.582;2023-02-15T01:27:05;78823.09;;;-144.37;100.00
36258;BME280;22294;52.044;4.582;2023-02-15T01:29:30;78810.81;;;-144.37;100.00
36258;BME280;22294;52.044;4.582;2023-02-15T01:31:55;78808.78;;;-144.37;100.00
36258;BME280;22294;52.044;4.582;2023-02-15T01:34:20;78808.78;;;-144.37;100.00
36258;BME280;22294;52.044;4.582;2023-02-15T01:36:46;78802.63;;;-144.37;100.00
36258;BME280;22294;52.044;4.582;2023-02-15T01:39:11;78804.69;;;-144.37;100.00
36258;BME280;22294;52.044;4.582;2023-02-15T01:41:36;78796.50;;;-144.37;100.00
36258;BME280;22294;52.044;4.582;2023-02-15T01:44:03;78782.16;;;-144.37;100.00
36258;BME280;22294;52.044;4.582;2023-02-15T01:46:40;78782.16;;;-144.37;100.00
36258;BME280;22294;52.044;4.582;2023-02-15T01:49:12;78788.31;;;-144.37;100.00
36258;BME280;22294;52.044;4.582;2023-02-15T01:51:40;78780.13;;;-144.37;100.00
36258;BME280;22294;52.044;4.582;2023-02-15T01:54:15;78780.13;;;-144.37;100.00
36258;BME280;22294;52.044;4.582;2023-02-15T01:56:42;78784.22;;;-144.37;100.00
36258;BME280;22294;52.044;4.582;2023-02-15T01:59:13;78790.34;;;-144.37;100.00
36258;BME280;22294;52.044;4.582;2023-02-15T02:01:40;78792.41;;;-144.37;100.00
36258;BME280;22294;52.044;4.582;2023-02-15T02:06:38;78784.22;;;-144.37;100.00
36258;BME280;22294;52.044;4.582;2023-02-15T02:09:04;78769.88;;;-144.37;100.00
36258;BME280;22294;52.044;4.582;2023-02-15T02:11:29;78769.88;;;-144.37;100.00
36258;BME280;22294;52.044;4.582;2023-02-15T02:13:55;78763.75;;;-144.37;100.00
36258;BME280;22294;52.044;4.582;2023-02-15T02:16:46;78757.59;;;-144.37;100.00
36258;BME280;22294;52.044;4.582;2023-02-15T02:28:33;78769.88;;;-144.37;100.00
36258;BME280;22294;52.044;4.582;2023-02-15T02:36:47;78786.25;;;-144.37;100.00
36258;BME280;22294;52.044;4.582;2023-02-15T02:42:18;78794.44;;;-144.37;100.00
36258;BME280;22294;52.044;4.582;2023-02-15T02:44:49;78786.25;;;-144.37;100.00
36258;BME280;22294;52.044;4.582;2023-02-15T02:49:45;78798.53;;;-144.37;100.00
36258;BME280;22294;52.044;4.582;2023-02-15T02:55:04;78786.25;;;-144.37;100.00
36258;BME280;22294;52.044;4.582;2023-02-15T02:57:32;78788.31;;;-144.37;100.00
36258;BME280;22294;52.044;4.582;2023-02-15T02:59:58;78792.41;;;-144.37;100.00
36258;BME280;22294;52.044;4.582;2023-02-15T03:02:29;78804.69;;;-144.37;100.00
36258;BME280;22294;52.044;4.582;2023-02-15T03:05:00;78804.69;;;-144.37;100.00
36258;BME280;22294;52.044;4.582;2023-02-15T03:07:30;78804.69;;;-144.37;100.00
36258;BME280;22294;52.044;4.582;2023-02-15T03:10:00;78810.81;;;-144.37;100.00
36258;BME280;22294;52.044;4.582;2023-02-15T03:12:32;78806.72;;;-144.37;100.00
36258;BME280;22294;52.044;4.582;2023-02-15T03:15:00;78810.81;;;-144.37;100.00
36258;BME280;22294;52.044;4.582;2023-02-15T03:17:30;78804.69;;;-144.37;100.00
36258;BME280;22294;52.044;4.582;2023-02-15T03:20:02;78804.69;;;-144.37;100.00
36258;BME280;22294;52.044;4.582;2023-02-15T03:22:53;78806.72;;;-144.37;100.00
36258;BME280;22294;52.044;4.582;2023-02-15T03:25:22;78808.78;;;-144.37;100.00
36258;BME280;22294;52.044;4.582;2023-02-15T03:27:55;78819.00;;;-144.37;100.00
36258;BME280;22294;52.044;4.582;2023-02-15T03:30:25;78814.91;;;-144.37;100.00
36258;BME280;22294;52.044;4.582;2023-02-15T03:32:52;78827.19;;;-144.37;100.00
36258;BME280;22294;52.044;4.582;2023-02-15T03:35:21;78835.38;;;-144.37;100.00
36258;BME280;22294;52.044;4.582;2023-02-15T03:37:59;78837.41;;;-144.37;100.00
36258;BME280;22294;52.044;4.582;2023-02-15T03:40:45;78827.19;;;-144.37;100.00
36258;BME280;22294;52.044;4.582;2023-02-15T03:43:48;78847.66;;;-144.37;100.00
36258;BME280;22294;52.044;4.582;2023-02-15T03:46:21;78847.66;;;-144.37;100.00
36258;BME280;22294;52.044;4.582;2023-02-15T03:48:57;78845.59;;;-144.37;100.00
36258;BME280;22294;52.044;4.582;2023-02-15T03:51:28;78843.56;;;-144.37;100.00
36258;BME280;22294;52.044;4.582;2023-02-15T03:54:15;78839.47;;;-144.37;100.00
36258;BME280;22294;52.044;4.582;2023-02-15T03:57:02;78839.47;;;-144.37;100.00
36258;BME280;22294;52.044;4.582;2023-02-15T03:59:47;78827.19;;;-144.37;100.00
36258;BME280;22294;52.044;4.582;2023-02-15T04:02:40;78827.19;;;-144.37;100.00
36258;BME280;22294;52.044;4.582;2023-02-15T04:05:08;78835.38;;;-144.37;100.00
36258;BME280;22294;52.044;4.582;2023-02-15T04:07:33;78827.19;;;-144.37;100.00
36258;BME280;22294;52.044;4.582;2023-02-15T04:09:58;78806.72;;;-144.37;100.00
36258;BME280;22294;52.044;4.582;2023-02-15T04:12:42;78773.97;;;-144.37;100.00
36258;BME280;22294;52.044;4.582;2023-02-15T04:15:11;78747.38;;;-144.37;100.00
36258;BME280;22294;52.044;4.582;2023-02-15T04:17:55;78737.16;;;-144.37;100.00
36258;BME280;22294;52.044;4.582;2023-02-15T04:20:21;78726.91;;;-144.37;100.00
36258;BME280;22294;52.044;4.582;2023-02-15T04:23:08;78716.69;;;-144.37;100.00
36258;BME280;22294;52.044;4.582;2023-02-15T04:25:52;78702.34;;;-144.37;100.00
36258;BME280;22294;52.044;4.582;2023-02-15T04:28:17;78696.22;;;-144.37;100.00
36258;BME280;22294;52.044;4.582;2023-02-15T04:30:42;78690.06;;;-144.37;100.00
36258;BME280;22294;52.044;4.582;2023-02-15T04:33:07;78694.16;;;-144.37;100.00
36258;BME280;22294;52.044;4.582;2023-02-15T04:35:33;78702.34;;;-144.37;100.00
36258;BME280;22294;52.044;4.582;2023-02-15T04:37:59;78712.59;;;-144.37;100.00
36258;BME280;22294;52.044;4.582;2023-02-15T04:40:25;78718.72;;;-144.37;100.00
36258;BME280;22294;52.044;4.582;2023-02-15T04:42:50;78720.78;;;-144.37;100.00
36258;BME280;22294;52.044;4.582;2023-02-15T04:45:16;78708.50;;;-144.37;100.00
36258;BME280;22294;52.044;4.582;2023-02-15T04:47:42;78702.34;;;-144.37;100.00
36258;BME280;22294;52.044;4.582;2023-02-15T04:50:07;78688.03;;;-144.37;100.00
36258;BME280;22294;52.044;4.582;2023-02-15T04:52:32;78681.88;;;-144.37;100.00
36258;BME280;22294;52.044;4.582;2023-02-15T04:54:58;78679.84;;;-144.37;100.00
36258;BME280;22294;52.044;4.582;2023-02-15T04:57:23;78673.69;;;-144.37;100.00
36258;BME280;22294;52.044;4.582;2023-02-15T04:59:48;78663.47;;;-144.37;100.00
36258;BME280;22294;52.044;4.582;2023-02-15T05:02:14;78659.38;;;-144.37;100.00
36258;BME280;22294;52.044;4.582;2023-02-15T05:04:39;78659.38;;;-144.37;100.00
36258;BME280;22294;52.044;4.582;2023-02-15T05:07:04;78659.38;;;-144.37;100.00
36258;BME280;22294;52.044;4.582;2023-02-15T05:09:29;78661.41;;;-144.37;100.00
36258;BME280;22294;52.044;4.582;2023-02-15T05:11:55;78663.47;;;-144.37;100.00
36258;BME280;22294;52.044;4.582;2023-02-15T05:14:20;78663.47;;;-144.37;100.00
36258;BME280;22294;52.044;4.582;2023-02-15T05:16:46;78661.41;;;-144.37;100.00
36258;BME280;22294;52.044;4.582;2023-02-15T05:19:11;78657.34;;;-144.37;100.00
36258;BME280;22294;52.044;4.582;2023-02-15T05:21:36;78657.34;;;-144.37;100.00
36258;BME280;22294;52.044;4.582;2023-02-15T05:24:02;78663.47;;;-144.37;100.00
36258;BME280;22294;52.044;4.582;2023-02-15T05:26:47;78661.41;;;-144.37;100.00
36258;BME280;22294;52.044;4.582;2023-02-15T05:29:31;78649.16;;;-144.37;100.00
36258;BME280;22294;52.044;4.582;2023-02-15T05:31:56;78651.19;;;-144.37;100.00
36258;BME280;22294;52.044;4.582;2023-02-15T05:34:21;78649.16;;;-144.37;100.00
36258;BME280;22294;52.044;4.582;2023-02-15T05:36:47;78645.06;;;-144.37;100.00
36258;BME280;22294;52.044;4.582;2023-02-15T05:39:12;78647.09;;;-144.37;100.00
36258;BME280;22294;52.044;4.582;2023-02-15T05:41:37;78649.16;;;-144.37;100.00
36258;BME280;22294;52.044;4.582;2023-02-15T05:44:03;78651.19;;;-144.37;100.00
36258;BME280;22294;52.044;4.582;2023-02-15T05:46:28;78643.00;;;-144.37;100.00
36258;BME280;22294;52.044;4.582;2023-02-15T05:48:53;78645.06;;;-144.37;100.00
36258;BME280;22294;52.044;4.582;2023-02-15T05:51:18;78649.16;;;-144.37;100.00
36258;BME280;22294;52.044;4.582;2023-02-15T05:53:44;78655.28;;;-144.37;100.00
36258;BME280;22294;52.044;4.582;2023-02-15T05:56:10;78655.28;;;-144.37;100.00
36258;BME280;22294;52.044;4.582;2023-02-15T05:58:38;78661.41;;;-144.37;100.00
36258;BME280;22294;52.044;4.582;2023-02-15T06:01:16;78647.09;;;-144.37;100.00
36258;BME280;22294;52.044;4.582;2023-02-15T06:03:42;78643.00;;;-144.37;100.00
36258;BME280;22294;52.044;4.582;2023-02-15T06:06:08;78645.06;;;-144.37;100.00
36258;BME280;22294;52.044;4.582;2023-02-15T06:08:34;78651.19;;;-144.37;100.00
36258;BME280;22294;52.044;4.582;2023-02-15T06:11:00;78649.16;;;-144.37;100.00
36258;BME280;22294;52.044;4.582;2023-02-15T06:13:25;78653.25;;;-144.37;100.00
36258;BME280;22294;52.044;4.582;2023-02-15T06:15:51;78653.25;;;-144.37;100.00
36258;BME280;22294;52.044;4.582;2023-02-15T06:18:16;78657.34;;;-144.37;100.00
36258;BME280;22294;52.044;4.582;2023-02-15T06:20:42;78657.34;;;-144.37;100.00
36258;BME280;22294;52.044;4.582;2023-02-15T06:23:07;78657.34;;;-144.37;100.00
36258;BME280;22294;52.044;4.582;2023-02-15T06:25:33;78653.25;;;-144.37;100.00
36258;BME280;22294;52.044;4.582;2023-02-15T06:27:59;78649.16;;;-144.37;100.00
36258;BME280;22294;52.044;4.582;2023-02-15T06:30:24;78647.09;;;-144.37;100.00
36258;BME280;22294;52.044;4.582;2023-02-15T06:32:49;78645.06;;;-144.37;100.00
36258;BME280;22294;52.044;4.582;2023-02-15T06:35:15;78647.09;;;-144.37;100.00
36258;BME280;22294;52.044;4.582;2023-02-15T06:37:40;78649.16;;;-144.37;100.00
36258;BME280;22294;52.044;4.582;2023-02-15T06:40:06;78643.00;;;-144.37;100.00
36258;BME280;22294;52.044;4.582;2023-02-15T06:42:32;78638.91;;;-144.37;100.00
36258;BME280;22294;52.044;4.582;2023-02-15T06:44:57;78645.06;;;-144.37;100.00
36258;BME280;22294;52.044;4.582;2023-02-15T06:47:24;78640.97;;;-144.37;100.00
36258;BME280;22294;52.044;4.582;2023-02-15T06:49:49;78643.00;;;-144.37;100.00
36258;BME280;22294;52.044;4.582;2023-02-15T06:52:14;78634.81;;;-144.37;100.00
36258;BME280;22294;52.044;4.582;2023-02-15T06:54:39;78659.38;;;-144.37;100.00
36258;BME280;22294;52.044;4.582;2023-02-15T06:57:05;78659.38;;;-144.37;100.00
36258;BME280;22294;52.044;4.582;2023-02-15T06:59:30;78655.28;;;-144.37;100.00
36258;BME280;22294;52.044;4.582;2023-02-15T07:01:55;78659.38;;;-144.37;100.00
36258;BME280;22294;52.044;4.582;2023-02-15T07:04:21;78653.25;;;-144.37;100.00
36258;BME280;22294;52.044;4.582;2023-02-15T07:06:46;78661.41;;;-144.37;100.00
36258;BME280;22294;52.044;4.582;2023-02-15T07:09:11;78643.00;;;-144.37;100.00
36258;BME280;22294;52.044;4.582;2023-02-15T07:11:38;78649.16;;;-144.37;100.00
36258;BME280;22294;52.044;4.582;2023-02-15T07:14:21;78640.97;;;-144.37;100.00
36258;BME280;22294;52.044;4.582;2023-02-15T07:16:47;78632.78;;;-144.37;100.00
36258;BME280;22294;52.044;4.582;2023-02-15T07:19:12;78647.09;;;-144.37;100.00
36258;BME280;22294;52.044;4.582;2023-02-15T07:21:37;78645.06;;;-144.37;100.00
36258;BME280;22294;52.044;4.582;2023-02-15T07:24:03;78640.97;;;-144.37;100.00
36258;BME280;22294;52.044;4.582;2023-02-15T07:26:28;78645.06;;;-144.37;100.00
36258;BME280;22294;52.044;4.582;2023-02-15T07:28:55;78647.09;;;-144.37;100.00
36258;BME280;22294;52.044;4.582;2023-02-15T07:31:21;78632.78;;;-144.37;100.00
36258;BME280;22294;52.044;4.582;2023-02-15T07:33:46;78636.88;;;-144.37;100.00
36258;BME280;22294;52.044;4.582;2023-02-15T07:36:12;78634.81;;;-144.37;100.00
36258;BME280;22294;52.044;4.582;2023-02-15T07:38:39;78626.63;;;-144.37;100.00
36258;BME280;22294;52.044;4.582;2023-02-15T07:41:07;78616.41;;;-144.37;100.00
36258;BME280;22294;52.044;4.582;2023-02-15T07:43:35;78616.41;;;-144.37;100.00
36258;BME280;22294;52.044;4.582;2023-02-15T07:46:02;78608.22;;;-144.37;100.00
36258;BME280;22294;52.044;4.582;2023-02-15T07:48:28;78604.13;;;-144.37;100.00
36258;BME280;22294;52.044;4.582;2023-02-15T07:50:53;78597.97;;;-144.37;100.00
36258;BME280;22294;52.044;4.582;2023-02-15T07:53:19;78591.84;;;-144.37;100.00
36258;BME280;22294;52.044;4.582;2023-02-15T07:55:44;78585.72;;;-144.37;100.00
36258;BME280;22294;52.044;4.582;2023-02-15T07:58:09;78595.94;;;-144.37;100.00
36258;BME280;22294;52.044;4.582;2023-02-15T08:00:35;78593.88;;;-144.37;100.00
36258;BME280;22294;52.044;4.582;2023-02-15T08:03:25;78591.84;;;-144.37;100.00
36258;BME280;22294;52.044;4.582;2023-02-15T08:05:58;78593.88;;;-144.37;100.00
36258;BME280;22294;52.044;4.582;2023-02-15T08:08:24;78593.88;;;-144.37;100.00
36258;BME280;22294;52.044;4.582;2023-02-15T08:19:16;78581.63;;;-144.37;100.00
36258;BME280;22294;52.044;4.582;2023-02-15T08:21:46;78575.47;;;-144.37;100.00
36258;BME280;22294;52.044;4.582;2023-02-15T08:24:13;78567.28;;;-144.37;100.00
36258;BME280;22294;52.044;4.582;2023-02-15T08:26:40;78557.06;;;-144.37;100.00
36258;BME280;22294;52.044;4.582;2023-02-15T08:29:05;78555.00;;;-144.37;100.00
36258;BME280;22294;52.044;4.582;2023-02-15T08:31:32;78546.81;;;-144.37;100.00
36258;BME280;22294;52.044;4.582;2023-02-15T08:33:58;78544.78;;;-144.37;100.00
36258;BME280;22294;52.044;4.582;2023-02-15T08:36:25;78546.81;;;-144.37;100.00
36258;BME280;22294;52.044;4.582;2023-02-15T08:38:52;78544.78;;;-144.37;100.00
36258;BME280;22294;52.044;4.582;2023-02-15T08:41:20;78536.59;;;-144.37;100.00
36258;BME280;22294;52.044;4.582;2023-02-15T08:43:51;78536.59;;;-144.37;100.00
36258;BME280;22294;52.044;4.582;2023-02-15T08:46:17;78530.44;;;-144.37;100.00
36258;BME280;22294;52.044;4.582;2023-02-15T08:48:43;78524.31;;;-144.37;100.00
36258;BME280;22294;52.044;4.582;2023-02-15T08:51:12;78512.03;;;-144.37;100.00
36258;BME280;22294;52.044;4.582;2023-02-15T08:53:40;78499.75;;;-144.37;100.00
36258;BME280;22294;52.044;4.582;2023-02-15T08:56:05;78489.53;;;-144.37;100.00
36258;BME280;22294;52.044;4.582;2023-02-15T08:58:31;78483.38;;;-144.37;100.00
36258;BME280;22294;52.044;4.582;2023-02-15T09:00:57;78483.38;;;-144.37;100.00
36258;BME280;22294;52.044;4.582;2023-02-15T09:03:22;78481.34;;;-144.37;100.00
36258;BME280;22294;52.044;4.582;2023-02-15T09:05:48;78471.09;;;-144.37;100.00
36258;BME280;22294;52.044;4.582;2023-02-15T09:08:14;78460.88;;;-144.37;100.00
36258;BME280;22294;52.044;4.582;2023-02-15T09:10:39;78462.94;;;-144.37;100.00
36258;BME280;22294;52.044;4.582;2023-02-15T09:13:04;78440.41;;;-144.37;100.00
36258;BME280;22294;52.044;4.582;2023-02-15T09:15:30;78442.47;;;-144.37;100.00
36258;BME280;22294;52.044;4.582;2023-02-15T09:17:55;78436.31;;;-144.37;100.00
36258;BME280;22294;52.044;4.582;2023-02-15T09:20:20;78413.81;;;-144.37;100.00
36258;BME280;22294;52.044;4.582;2023-02-15T09:22:46;78401.53;;;-144.37;100.00
36258;BME280;22294;52.044;4.582;2023-02-15T09:25:12;78389.25;;;-144.37;100.00
36258;BME280;22294;52.044;4.582;2023-02-15T09:27:38;78383.13;;;-144.37;100.00
36258;BME280;22294;52.044;4.582;2023-02-15T09:30:05;78370.84;;;-144.37;100.00
36258;BME280;22294;52.044;4.582;2023-02-15T09:32:30;78346.28;;;-144.37;100.00
36258;BME280;22294;52.044;4.582;2023-02-15T09:34:56;78338.09;;;-144.37;100.00
36258;BME280;22294;52.044;4.582;2023-02-15T09:37:21;78321.72;;;-144.37;100.00
36258;BME280;22294;52.044;4.582;2023-02-15T09:39:46;78303.31;;;-144.37;100.00
36258;BME280;22294;52.044;4.582;2023-02-15T09:42:28;78291.03;;;-144.37;100.00
36258;BME280;22294;52.044;4.582;2023-02-15T09:45:50;78278.75;;;-144.37;100.00
36258;BME280;22294;52.044;4.582;2023-02-15T09:48:26;78250.09;;;-144.37;100.00
36258;BME280;22294;52.044;4.582;2023-02-15T09:56:28;78190.78;;;-144.37;100.00
36258;BME280;22294;52.044;4.582;2023-02-15T10:07:49;78133.47;;;-144.37;100.00
36258;BME280;22294;52.044;4.582;2023-02-15T10:13:04;78117.09;;;-144.37;100.00
36258;BME280;22294;52.044;4.582;2023-02-15T10:18:29;78100.75;;;-144.37;100.00
36258;BME280;22294;52.044;4.582;2023-02-15T10:26:20;78061.88;;;-144.37;99.90
36258;BME280;22294;52.044;4.582;2023-02-15T10:29:03;78059.81;;;-144.37;98.89
36258;BME280;22294;52.044;4.582;2023-02-15T10:31:51;78037.31;;;-144.37;98.92
36258;BME280;22294;52.044;4.582;2023-02-15T10:34:25;78027.06;;;-144.37;97.55
36258;BME280;22294;52.044;4.582;2023-02-15T10:45:40;77975.94;;;-144.37;95.21
36258;BME280;22294;52.044;4.582;2023-02-15T10:48:37;77961.59;;;-144.37;95.00
36258;BME280;22294;52.044;4.582;2023-02-15T10:51:12;77947.28;;;-144.37;93.91
36258;BME280;22294;52.044;4.582;2023-02-15T10:54:19;77924.78;;;-144.37;93.45
36258;BME280;22294;52.044;4.582;2023-02-15T10:57:01;77912.50;;;-144.37;91.84
36258;BME280;22294;52.044;4.582;2023-02-15T10:59:42;77902.25;;;-144.37;91.04
36258;BME280;22294;52.044;4.582;2023-02-15T11:02:23;77885.91;;;-144.37;91.24
36258;BME280;22294;52.044;4.582;2023-02-15T11:05:05;77879.75;;;-144.37;89.86
36258;BME280;22294;52.044;4.582;2023-02-15T11:07:38;77871.56;;;-144.37;88.61
36258;BME280;22294;52.044;4.582;2023-02-15T11:10:33;77865.44;;;-144.37;87.75
36258;BME280;22294;52.044;4.582;2023-02-15T11:13:09;77851.13;;;-144.37;86.71
36258;BME280;22294;52.044;4.582;2023-02-15T11:15:43;77838.84;;;-144.37;87.01
36258;BME280;22294;52.044;4.582;2023-02-15T11:18:19;77838.84;;;-144.37;86.58
36258;BME280;22294;52.044;4.582;2023-02-15T11:23:24;77826.56;;;-144.37;86.37
36258;BME280;22294;52.044;4.582;2023-02-15T11:26:02;77826.56;;;-144.37;85.94
36258;BME280;22294;52.044;4.582;2023-02-15T11:28:37;77802.00;;;-144.37;86.62
36258;BME280;22294;52.044;4.582;2023-02-15T11:31:17;77787.69;;;-144.37;86.30
36258;BME280;22294;52.044;4.582;2023-02-15T11:33:46;77787.69;;;-144.37;85.67
36258;BME280;22294;52.044;4.582;2023-02-15T11:36:24;77789.72;;;-144.37;84.76
36258;BME280;22294;52.044;4.582;2023-02-15T11:38:57;77777.47;;;-144.37;84.35
36258;BME280;22294;52.044;4.582;2023-02-15T11:41:28;77781.56;;;-144.37;84.54
36258;BME280;22294;52.044;4.582;2023-02-15T11:44:07;77779.50;;;-144.37;83.40
36258;BME280;22294;52.044;4.582;2023-02-15T11:46:33;77769.28;;;-144.37;82.90
36258;BME280;22294;52.044;4.582;2023-02-15T11:48:59;77763.13;;;-144.37;82.51
36258;BME280;22294;52.044;4.582;2023-02-15T11:51:25;77752.91;;;-144.37;82.03
36258;BME280;22294;52.044;4.582;2023-02-15T11:53:53;77744.72;;;-144.37;83.46
36258;BME280;22294;52.044;4.582;2023-02-15T11:56:23;77722.22;;;-144.37;83.71
36258;BME280;22294;52.044;4.582;2023-02-15T11:58:59;77707.91;;;-144.37;82.78
36258;BME280;22294;52.044;4.582;2023-02-15T12:01:41;77685.38;;;-144.37;82.83
36258;BME280;22294;52.044;4.582;2023-02-15T12:06:59;77679.25;;;-144.37;81.38
36258;BME280;22294;52.044;4.582;2023-02-15T12:09:51;77683.34;;;-144.37;80.33
36258;BME280;22294;52.044;4.582;2023-02-15T12:12:32;77671.06;;;-144.37;80.24
36258;BME280;22294;52.044;4.582;2023-02-15T12:15:03;77669.03;;;-144.37;79.83
36258;BME280;22294;52.044;4.582;2023-02-15T12:17:32;77662.88;;;-144.37;80.02
36258;BME280;22294;52.044;4.582;2023-02-15T12:22:40;77632.19;;;-144.37;79.87
36258;BME280;22294;52.044;4.582;2023-02-15T12:25:51;77617.88;;;-144.37;79.51
36258;BME280;22294;52.044;4.582;2023-02-15T12:28:32;77601.50;;;-144.37;79.57
36258;BME280;22294;52.044;4.582;2023-02-15T12:30:59;77593.31;;;-144.37;79.42
36258;BME280;22294;52.044;4.582;2023-02-15T12:33:35;77587.19;;;-144.37;77.88
36258;BME280;22294;52.044;4.582;2023-02-15T12:41:38;77564.69;;;-144.37;77.28
36258;BME280;22294;52.044;4.582;2023-02-15T12:44:18;77558.53;;;-144.37;76.63
36258;BME280;22294;52.044;4.582;2023-02-15T12:47:06;77556.50;;;-144.37;76.15
36258;BME280;22294;52.044;4.582;2023-02-15T12:49:43;77554.47;;;-144.37;76.03
36258;BME280;22294;52.044;4.582;2023-02-15T12:54:45;77536.03;;;-144.37;74.97
36258;BME280;22294;52.044;4.582;2023-02-15T12:59:53;77525.81;;;-144.37;74.38
36258;BME280;22294;52.044;4.582;2023-02-15T13:02:22;77527.84;;;-144.37;73.57
36258;BME280;22294;52.044;4.582;2023-02-15T13:04:49;77536.03;;;-144.37;73.62
36258;BME280;22294;52.044;4.582;2023-02-15T13:07:15;77527.84;;;-144.37;74.39
36258;BME280;22294;52.044;4.582;2023-02-15T13:09:40;77521.72;;;-144.37;73.65
36258;BME280;22294;52.044;4.582;2023-02-15T13:12:21;77515.59;;;-144.37;73.50
36258;BME280;22294;52.044;4.582;2023-02-15T13:14:50;77515.59;;;-144.37;75.04
36258;BME280;22294;52.044;4.582;2023-02-15T13:17:18;77507.41;;;-144.37;75.13
36258;BME280;22294;52.044;4.582;2023-02-15T13:19:48;77511.50;;;-144.37;73.98
36258;BME280;22294;52.044;4.582;2023-02-15T13:22:20;77509.44;;;-144.37;73.26
36258;BME280;22294;52.044;4.582;2023-02-15T13:24:58;77507.41;;;-144.37;74.31
36258;BME280;22294;52.044;4.582;2023-02-15T13:27:31;77505.34;;;-144.37;74.40
36258;BME280;22294;52.044;4.582;2023-02-15T13:30:00;77519.66;;;-144.37;74.87
36258;BME280;22294;52.044;4.582;2023-02-15T13:32:34;77517.63;;;-144.37;75.34
36258;BME280;22294;52.044;4.582;2023-02-15T13:35:03;77511.50;;;-144.37;76.42
36258;BME280;22294;52.044;4.582;2023-02-15T13:37:51;77507.41;;;-144.37;76.18
36258;BME280;22294;52.044;4.582;2023-02-15T13:40:29;77497.16;;;-144.37;75.76
36258;BME280;22294;52.044;4.582;2023-02-15T13:45:39;77491.03;;;-144.37;75.67
36258;BME280;22294;52.044;4.582;2023-02-15T13:48:21;77484.91;;;-144.37;75.41
36258;BME280;22294;52.044;4.582;2023-02-15T13:53:59;77456.25;;;-144.37;75.56
36258;BME280;22294;52.044;4.582;2023-02-15T13:59:32;77446.03;;;-144.37;75.71
36258;BME280;22294;52.044;4.582;2023-02-15T14:04:52;77419.44;;;-144.37;74.01
36258;BME280;22294;52.044;4.582;2023-02-15T14:15:26;77407.16;;;-144.37;74.57
36258;BME280;22294;52.044;4.582;2023-02-15T14:18:31;77384.66;;;-144.37;74.70
36258;BME280;22294;52.044;4.582;2023-02-15T14:21:18;77384.66;;;-144.37;74.18
36258;BME280;22294;52.044;4.582;2023-02-15T14:26:51;77390.78;;;-144.37;73.26
36258;BME280;22294;52.044;4.582;2023-02-15T14:29:45;77398.97;;;-144.37;72.19
36258;BME280;22294;52.044;4.582;2023-02-15T14:32:27;77401.00;;;-144.37;72.83
36258;BME280;22294;52.044;4.582;2023-02-15T14:34:59;77409.19;;;-144.37;72.68
36258;BME280;22294;52.044;4.582;2023-02-15T14:37:43;77409.19;;;-144.37;73.22
36258;BME280;22294;52.044;4.582;2023-02-15T14:46:51;77413.28;;;-144.37;74.67